createdAt,value
2019-02-24T00:00:05.046Z,102819.92
2019-02-24T00:01:43.626Z,102812.49
2019-02-24T00:03:18.009Z,102825.39
2019-02-24T00:04:52.453Z,102816.16
2019-02-24T00:06:26.850Z,102821.48
2019-02-24T00:08:01.661Z,102816.28
2019-02-24T00:09:36.028Z,102812.98
2019-02-24T00:11:10.514Z,102818.56
2019-02-24T00:12:44.897Z,102820.41
2019-02-24T00:14:19.718Z,102816.53
2019-02-24T00:15:54.142Z,102821.53
2019-02-24T00:17:28.574Z,102816.77
2019-02-24T00:19:03.831Z,102823.08
2019-02-24T00:20:38.601Z,102826.13
2019-02-24T00:22:13.069Z,102824.98
2019-02-24T00:23:47.551Z,102825.47
2019-02-24T00:25:21.989Z,102824.05
2019-02-24T00:26:56.596Z,102830.05
2019-02-24T00:28:31.282Z,102827.55
2019-02-24T00:30:05.926Z,102823.05
2019-02-24T00:31:40.522Z,102826.44
2019-02-24T00:33:14.877Z,102821.58
2019-02-24T00:34:49.281Z,102822.33
2019-02-24T00:36:23.977Z,102813.13
2019-02-24T00:37:58.621Z,102815.98
2019-02-24T00:39:33.085Z,102806.90
2019-02-24T00:41:07.474Z,102809.87
2019-02-24T00:42:41.849Z,102812.90
2019-02-24T00:44:16.217Z,102818.17
2019-02-24T00:45:50.833Z,102826.70
2019-02-24T00:47:26.263Z,102822.39
2019-02-24T00:49:01.058Z,102818.34
2019-02-24T00:50:35.851Z,102812.02
2019-02-24T00:52:10.643Z,102815.25
2019-02-24T00:53:45.706Z,102815.91
2019-02-24T00:55:20.767Z,102815.41
2019-02-24T00:56:55.568Z,102816.87
2019-02-24T00:58:30.581Z,102816.52
2019-02-24T01:00:06.121Z,102809.56
2019-02-24T01:01:40.934Z,102809.34
2019-02-24T01:03:15.866Z,102803.50
2019-02-24T01:04:50.553Z,102798.33
2019-02-24T01:06:24.941Z,102801.50
2019-02-24T01:07:59.302Z,102797.32
2019-02-24T01:09:33.925Z,102794.09
2019-02-24T01:11:08.405Z,102790.27
2019-02-24T01:12:42.880Z,102791.62
2019-02-24T01:14:17.248Z,102795.72
2019-02-24T01:15:51.626Z,102781.69
2019-02-24T01:17:26.017Z,102784.27
2019-02-24T01:19:01.013Z,102788.66
2019-02-24T01:20:35.372Z,102783.61
2019-02-24T01:22:10.001Z,102783.84
2019-02-24T01:23:44.641Z,102786.95
2019-02-24T01:25:19.312Z,102779.05
2019-02-24T01:26:53.686Z,102781.77
2019-02-24T01:28:28.056Z,102783.51
2019-02-24T01:30:03.285Z,102789.10
2019-02-24T01:31:37.966Z,102788.01
2019-02-24T01:33:12.584Z,102796.72
2019-02-24T01:34:47.172Z,102785.89
2019-02-24T01:36:21.793Z,102783.70
2019-02-24T01:37:56.156Z,102780.23
2019-02-24T01:39:30.665Z,102770.39
2019-02-24T01:41:05.195Z,102757.02
2019-02-24T01:42:39.770Z,102751.24
2019-02-24T01:44:14.574Z,102761.57
2019-02-24T01:45:48.937Z,102759.51
2019-02-24T01:47:23.553Z,102752.92
2019-02-24T01:48:58.104Z,102741.50
2019-02-24T01:50:32.458Z,102746.62
2019-02-24T01:52:06.809Z,102748.33
2019-02-24T01:53:41.213Z,102758.52
2019-02-24T01:55:15.634Z,102749.36
2019-02-24T01:56:50.246Z,102744.97
2019-02-24T01:58:24.958Z,102750.64
2019-02-24T01:59:59.381Z,102753.18
2019-02-24T02:01:34.117Z,102755.83
2019-02-24T02:03:08.456Z,102751.30
2019-02-24T02:04:42.925Z,102756.47
2019-02-24T02:06:17.292Z,102761.97
2019-02-24T02:07:51.787Z,102759.98
2019-02-24T02:09:26.274Z,102758.69
2019-02-24T02:11:00.890Z,102759.64
2019-02-24T02:12:35.300Z,102763.75
2019-02-24T02:14:09.744Z,102765.68
2019-02-24T02:15:44.128Z,102772.15
2019-02-24T02:17:18.492Z,102776.25
2019-02-24T02:18:52.962Z,102779.80
2019-02-24T02:20:27.389Z,102774.01
2019-02-24T02:22:01.989Z,102771.17
2019-02-24T02:23:36.426Z,102772.68
2019-02-24T02:25:10.822Z,102772.48
2019-02-24T02:26:45.478Z,102764.56
2019-02-24T02:28:20.438Z,102761.71
2019-02-24T02:29:55.153Z,102765.88
2019-02-24T02:31:29.526Z,102765.44
2019-02-24T02:33:04.238Z,102766.19
2019-02-24T02:34:39.098Z,102763.77
2019-02-24T02:36:13.765Z,102763.97
2019-02-24T02:37:49.095Z,102755.73
2019-02-24T02:39:23.471Z,102751.84
2019-02-24T02:40:57.929Z,102747.61
2019-02-24T02:42:32.353Z,102748.02
2019-02-24T02:44:06.830Z,102745.09
2019-02-24T02:45:41.701Z,102739.77
2019-02-24T02:47:16.066Z,102739.70
2019-02-24T02:48:50.501Z,102739.19
2019-02-24T02:50:24.892Z,102736.98
2019-02-24T02:51:59.340Z,102742.25
2019-02-24T02:53:34.033Z,102741.22
2019-02-24T02:55:08.565Z,102750.03
2019-02-24T02:56:43.297Z,102749.52
2019-02-24T02:58:17.678Z,102751.63
2019-02-24T02:59:52.298Z,102739.16
2019-02-24T03:01:26.736Z,102748.14
2019-02-24T03:03:01.685Z,102753.18
2019-02-24T03:04:36.281Z,102763.25
2019-02-24T03:06:19.388Z,102761.34
2019-02-24T03:08:01.667Z,102755.47
2019-02-24T03:09:36.373Z,102758.30
2019-02-24T03:11:10.832Z,102748.63
2019-02-24T03:12:45.628Z,102753.02
2019-02-24T03:14:20.299Z,102758.19
2019-02-24T03:15:54.959Z,102758.90
2019-02-24T03:17:29.329Z,102760.34
2019-02-24T03:19:03.685Z,102770.33
2019-02-24T03:20:38.512Z,102767.86
2019-02-24T03:22:12.965Z,102767.23
2019-02-24T03:23:47.598Z,102759.74
2019-02-24T03:25:22.230Z,102755.67
2019-02-24T03:26:56.845Z,102757.16
2019-02-24T03:28:31.814Z,102763.88
2019-02-24T03:30:06.592Z,102764.15
2019-02-24T03:31:41.456Z,102752.63
2019-02-24T03:33:16.104Z,102751.65
2019-02-24T03:34:50.794Z,102755.98
2019-02-24T03:36:25.394Z,102753.56
2019-02-24T03:38:00.318Z,102758.97
2019-02-24T03:39:35.041Z,102761.84
2019-02-24T03:41:09.824Z,102760.52
2019-02-24T03:42:44.485Z,102774.14
2019-02-24T03:44:18.855Z,102772.81
2019-02-24T03:45:53.460Z,102780.18
2019-02-24T03:47:27.873Z,102783.83
2019-02-24T03:49:02.315Z,102787.65
2019-02-24T03:50:36.685Z,102787.24
2019-02-24T03:52:11.050Z,102794.20
2019-02-24T03:53:46.517Z,102790.47
2019-02-24T03:55:21.620Z,102786.16
2019-02-24T03:56:56.674Z,102789.44
2019-02-24T03:58:31.774Z,102771.83
2019-02-24T04:00:07.090Z,102776.73
2019-02-24T04:01:42.770Z,102768.02
2019-02-24T04:03:17.895Z,102772.59
2019-02-24T04:04:53.095Z,102768.90
2019-02-24T04:06:28.165Z,102774.53
2019-02-24T04:08:03.196Z,102764.09
2019-02-24T04:09:38.456Z,102763.12
2019-02-24T04:11:13.517Z,102760.97
2019-02-24T04:12:48.562Z,102749.05
2019-02-24T04:14:23.617Z,102751.25
2019-02-24T04:15:58.875Z,102756.36
2019-02-24T04:17:33.971Z,102752.63
2019-02-24T04:19:08.758Z,102758.55
2019-02-24T04:20:44.042Z,102751.84
2019-02-24T04:22:19.080Z,102745.97
2019-02-24T04:23:53.873Z,102739.41
2019-02-24T04:25:28.688Z,102743.81
2019-02-24T04:27:03.723Z,102749.13
2019-02-24T04:28:38.540Z,102747.27
2019-02-24T04:30:13.328Z,102740.47
2019-02-24T04:31:48.390Z,102736.80
2019-02-24T04:33:23.417Z,102738.13
2019-02-24T04:34:58.241Z,102735.42
2019-02-24T04:36:33.015Z,102746.80
2019-02-24T04:38:08.041Z,102754.11
2019-02-24T04:39:43.442Z,102747.11
2019-02-24T04:41:18.498Z,102739.40
2019-02-24T04:42:53.536Z,102748.58
2019-02-24T04:44:28.820Z,102750.86
2019-02-24T04:46:04.089Z,102761.78
2019-02-24T04:47:38.903Z,102762.60
2019-02-24T04:49:13.679Z,102761.34
2019-02-24T04:50:48.506Z,102766.36
2019-02-24T04:52:23.535Z,102761.62
2019-02-24T04:53:58.566Z,102752.67
2019-02-24T04:55:33.379Z,102750.61
2019-02-24T04:57:08.678Z,102749.63
2019-02-24T04:58:43.464Z,102751.98
2019-02-24T05:00:18.724Z,102754.89
2019-02-24T05:01:53.586Z,102747.39
2019-02-24T05:03:28.595Z,102747.28
2019-02-24T05:05:03.909Z,102755.93
2019-02-24T05:06:38.686Z,102755.63
2019-02-24T05:08:13.478Z,102754.27
2019-02-24T05:09:48.273Z,102753.67
2019-02-24T05:11:23.413Z,102735.75
2019-02-24T05:12:58.430Z,102731.16
2019-02-24T05:14:33.472Z,102754.27
2019-02-24T05:16:08.266Z,102745.91
2019-02-24T05:17:43.579Z,102738.69
2019-02-24T05:19:18.356Z,102743.38
2019-02-24T05:20:53.638Z,102738.50
2019-02-24T05:22:28.667Z,102740.59
2019-02-24T05:24:03.702Z,102728.39
2019-02-24T05:25:38.780Z,102723.50
2019-02-24T05:27:13.797Z,102716.71
2019-02-24T05:28:48.645Z,102710.56
2019-02-24T05:30:23.430Z,102713.55
2019-02-24T05:31:58.259Z,102710.69
2019-02-24T05:33:33.296Z,102710.33
2019-02-24T05:35:08.580Z,102697.22
2019-02-24T05:36:43.594Z,102702.95
2019-02-24T05:38:18.768Z,102694.58
2019-02-24T05:39:53.563Z,102689.80
2019-02-24T05:41:28.600Z,102689.85
2019-02-24T05:43:03.717Z,102690.01
2019-02-24T05:44:38.608Z,102693.32
2019-02-24T05:46:13.704Z,102693.09
2019-02-24T05:47:48.502Z,102681.91
2019-02-24T05:49:23.293Z,102682.77
2019-02-24T05:50:58.133Z,102691.47
2019-02-24T05:52:32.899Z,102684.25
2019-02-24T05:54:07.688Z,102686.65
2019-02-24T05:55:42.478Z,102688.19
2019-02-24T05:57:17.359Z,102687.17
2019-02-24T05:58:52.141Z,102684.81
2019-02-24T06:00:27.187Z,102678.99
2019-02-24T06:02:02.110Z,102693.31
2019-02-24T06:03:37.267Z,102695.42
2019-02-24T06:05:12.657Z,102696.71
2019-02-24T06:06:47.677Z,102695.53
2019-02-24T06:08:22.467Z,102698.23
2019-02-24T06:09:57.364Z,102696.82
2019-02-24T06:11:32.632Z,102689.48
2019-02-24T06:13:07.461Z,102688.73
2019-02-24T06:14:42.989Z,102696.52
2019-02-24T06:16:18.391Z,102698.73
2019-02-24T06:17:53.685Z,102694.95
2019-02-24T06:19:28.198Z,102697.64
2019-02-24T06:21:02.569Z,102697.44
2019-02-24T06:22:36.945Z,102699.29
2019-02-24T06:24:11.310Z,102707.68
2019-02-24T06:25:45.923Z,102720.70
2019-02-24T06:27:20.522Z,102725.35
2019-02-24T06:28:55.260Z,102715.15
2019-02-24T06:30:29.624Z,102698.71
2019-02-24T06:32:03.989Z,102701.14
2019-02-24T06:33:38.543Z,102708.42
2019-02-24T06:35:12.966Z,102700.64
2019-02-24T06:36:47.355Z,102707.23
2019-02-24T06:38:21.758Z,102703.84
2019-02-24T06:39:56.126Z,102709.73
2019-02-24T06:41:30.807Z,102711.63
2019-02-24T06:43:05.174Z,102711.74
2019-02-24T06:44:39.772Z,102711.58
2019-02-24T06:46:14.136Z,102707.01
2019-02-24T06:47:48.890Z,102706.27
2019-02-24T06:49:23.261Z,102698.92
2019-02-24T06:51:01.264Z,102703.80
2019-02-24T06:52:35.887Z,102702.53
2019-02-24T06:54:10.793Z,102703.09
2019-02-24T06:55:59.240Z,102701.42
2019-02-24T06:57:34.256Z,102704.32
2019-02-24T06:59:08.917Z,102706.25
2019-02-24T07:00:43.630Z,102702.86
2019-02-24T07:02:18.048Z,102686.25
2019-02-24T07:03:52.453Z,102679.42
2019-02-24T07:05:27.347Z,102676.12
2019-02-24T07:07:02.001Z,102672.65
2019-02-24T07:08:36.414Z,102672.88
2019-02-24T07:10:10.807Z,102673.84
2019-02-24T07:11:45.831Z,102681.04
2019-02-24T07:13:20.771Z,102676.54
2019-02-24T07:14:55.134Z,102676.19
2019-02-24T07:16:29.784Z,102679.45
2019-02-24T07:18:04.174Z,102680.93
2019-02-24T07:19:38.529Z,102680.20
2019-02-24T07:21:12.893Z,102680.08
2019-02-24T07:22:47.524Z,102675.52
2019-02-24T07:24:22.307Z,102674.11
2019-02-24T07:25:57.439Z,102662.68
2019-02-24T07:27:32.219Z,102667.30
2019-02-24T07:29:07.001Z,102667.21
2019-02-24T07:30:41.818Z,102674.13
2019-02-24T07:32:16.591Z,102677.22
2019-02-24T07:33:51.718Z,102668.72
2019-02-24T07:35:26.781Z,102676.70
2019-02-24T07:37:01.950Z,102676.91
2019-02-24T07:38:37.347Z,102676.26
2019-02-24T07:40:12.136Z,102680.14
2019-02-24T07:41:49.775Z,102684.61
2019-02-24T07:43:24.671Z,102681.81
2019-02-24T07:44:59.454Z,102680.50
2019-02-24T07:46:34.866Z,102675.43
2019-02-24T07:48:09.920Z,102670.37
2019-02-24T07:49:44.652Z,102668.19
2019-02-24T07:51:19.369Z,102673.85
2019-02-24T07:52:54.096Z,102680.28
2019-02-24T07:54:29.067Z,102680.02
2019-02-24T07:56:03.902Z,102682.18
2019-02-24T07:57:38.562Z,102685.09
2019-02-24T07:59:13.284Z,102680.06
2019-02-24T08:00:48.001Z,102683.87
2019-02-24T08:02:23.130Z,102678.69
2019-02-24T08:03:57.857Z,102675.30
2019-02-24T08:05:32.574Z,102678.78
2019-02-24T08:07:07.396Z,102679.36
2019-02-24T08:08:41.814Z,102681.20
2019-02-24T08:10:16.198Z,102682.91
2019-02-24T08:11:50.574Z,102683.03
2019-02-24T08:13:25.277Z,102687.22
2019-02-24T08:15:00.092Z,102691.56
2019-02-24T08:16:34.618Z,102693.98
2019-02-24T08:18:09.405Z,102688.25
2019-02-24T08:19:44.141Z,102691.84
2019-02-24T08:21:18.538Z,102697.16
2019-02-24T08:22:52.898Z,102702.47
2019-02-24T08:24:29.124Z,102699.70
2019-02-24T08:26:03.625Z,102707.22
2019-02-24T08:27:37.994Z,102704.37
2019-02-24T08:29:12.650Z,102712.27
2019-02-24T08:30:47.399Z,102708.79
2019-02-24T08:32:21.779Z,102706.97
2019-02-24T08:33:56.518Z,102707.80
2019-02-24T08:35:31.249Z,102706.53
2019-02-24T08:37:05.625Z,102704.44
2019-02-24T08:38:40.516Z,102702.56
2019-02-24T08:40:15.137Z,102710.69
2019-02-24T08:41:50.125Z,102710.75
2019-02-24T08:43:24.505Z,102705.40
2019-02-24T08:45:00.492Z,102710.80
2019-02-24T08:46:35.214Z,102706.57
2019-02-24T08:48:09.572Z,102720.73
2019-02-24T08:49:43.961Z,102723.84
2019-02-24T08:51:18.361Z,102726.88
2019-02-24T08:52:53.369Z,102723.68
2019-02-24T08:54:27.746Z,102721.60
2019-02-24T08:56:02.115Z,102728.98
2019-02-24T08:57:36.917Z,102720.63
2019-02-24T08:59:11.541Z,102733.41
2019-02-24T09:00:50.942Z,102734.55
2019-02-24T09:02:22.313Z,102741.02
2019-02-24T09:03:57.227Z,102739.13
2019-02-24T09:05:31.961Z,102741.19
2019-02-24T09:07:08.475Z,102733.14
2019-02-24T09:08:43.350Z,102734.36
2019-02-24T09:10:18.067Z,102746.32
2019-02-24T09:11:52.791Z,102747.44
2019-02-24T09:13:27.154Z,102738.84
2019-02-24T09:15:02.126Z,102730.02
2019-02-24T09:16:37.059Z,102730.75
2019-02-24T09:18:11.531Z,102732.05
2019-02-24T09:19:45.964Z,102737.23
2019-02-24T09:21:20.711Z,102735.28
2019-02-24T09:22:55.425Z,102737.42
2019-02-24T09:24:30.160Z,102741.31
2019-02-24T09:26:04.966Z,102745.69
2019-02-24T09:27:39.430Z,102742.88
2019-02-24T09:29:14.447Z,102754.12
2019-02-24T09:30:49.573Z,102763.94
2019-02-24T09:32:23.945Z,102774.16
2019-02-24T09:33:58.310Z,102770.65
2019-02-24T09:35:32.677Z,102759.11
2019-02-24T09:37:07.971Z,102748.50
2019-02-24T09:38:43.034Z,102740.30
2019-02-24T09:40:17.836Z,102751.33
2019-02-24T09:41:52.635Z,102753.13
2019-02-24T09:43:27.174Z,102749.78
2019-02-24T09:45:01.590Z,102741.44
2019-02-24T09:46:35.989Z,102731.44
2019-02-24T09:48:10.649Z,102732.40
2019-02-24T09:49:45.578Z,102733.60
2019-02-24T09:51:20.314Z,102732.45
2019-02-24T09:52:54.744Z,102734.08
2019-02-24T09:54:29.738Z,102726.41
2019-02-24T09:56:04.969Z,102730.19
2019-02-24T09:57:39.335Z,102733.52
2019-02-24T09:59:14.315Z,102727.05
2019-02-24T10:00:48.681Z,102733.19
2019-02-24T10:02:23.157Z,102731.05
2019-02-24T10:03:57.842Z,102728.58
2019-02-24T10:05:32.462Z,102717.63
2019-02-24T10:07:06.880Z,102713.81
2019-02-24T10:08:41.779Z,102719.94
2019-02-24T10:10:16.142Z,102713.02
2019-02-24T10:11:50.546Z,102716.10
2019-02-24T10:13:24.986Z,102712.18
2019-02-24T10:14:59.725Z,102715.31
2019-02-24T10:16:34.081Z,102716.08
2019-02-24T10:18:08.819Z,102716.47
2019-02-24T10:19:43.829Z,102710.45
2019-02-24T10:21:18.222Z,102714.37
2019-02-24T10:22:52.860Z,102706.94
2019-02-24T10:24:27.306Z,102701.09
2019-02-24T10:26:02.106Z,102698.95
2019-02-24T10:27:36.761Z,102702.75
2019-02-24T10:29:11.429Z,102698.97
2019-02-24T10:30:46.438Z,102690.49
2019-02-24T10:32:21.217Z,102699.33
2019-02-24T10:33:56.100Z,102695.53
2019-02-24T10:35:31.201Z,102696.95
2019-02-24T10:37:06.938Z,102687.94
2019-02-24T10:38:42.371Z,102697.19
2019-02-24T10:40:17.615Z,102692.64
2019-02-24T10:41:53.718Z,102690.43
2019-02-24T10:43:29.415Z,102684.62
2019-02-24T10:45:05.105Z,102692.33
2019-02-24T10:46:40.258Z,102689.55
2019-02-24T10:48:15.042Z,102690.19
2019-02-24T10:49:50.129Z,102678.34
2019-02-24T10:51:25.513Z,102673.21
2019-02-24T10:53:00.616Z,102664.42
2019-02-24T10:54:35.399Z,102663.77
2019-02-24T10:56:09.838Z,102654.98
2019-02-24T10:57:44.201Z,102664.28
2019-02-24T10:59:18.585Z,102668.20
2019-02-24T11:00:52.953Z,102665.06
2019-02-24T11:02:27.958Z,102662.06
2019-02-24T11:04:02.771Z,102661.95
2019-02-24T11:05:37.615Z,102659.02
2019-02-24T11:07:12.132Z,102657.71
2019-02-24T11:08:47.241Z,102655.77
2019-02-24T11:10:21.622Z,102652.23
2019-02-24T11:11:56.386Z,102640.95
2019-02-24T11:13:31.411Z,102640.91
2019-02-24T11:15:06.703Z,102631.02
2019-02-24T11:16:41.385Z,102620.34
2019-02-24T11:18:15.775Z,102624.46
2019-02-24T11:19:50.211Z,102620.57
2019-02-24T11:21:25.115Z,102614.20
2019-02-24T11:22:59.560Z,102612.27
2019-02-24T11:24:34.516Z,102615.92
2019-02-24T11:26:09.198Z,102603.34
2019-02-24T11:27:44.027Z,102602.83
2019-02-24T11:29:18.655Z,102591.33
2019-02-24T11:30:53.033Z,102595.91
2019-02-24T11:32:27.666Z,102591.48
2019-02-24T11:34:02.038Z,102583.80
2019-02-24T11:35:36.426Z,102564.48
2019-02-24T11:37:11.190Z,102580.72
2019-02-24T11:38:45.639Z,102587.44
2019-02-24T11:40:20.434Z,102570.59
2019-02-24T11:41:55.079Z,102562.75
2019-02-24T11:43:29.445Z,102578.34
2019-02-24T11:45:04.163Z,102571.27
2019-02-24T11:46:38.955Z,102568.02
2019-02-24T11:48:13.346Z,102563.13
2019-02-24T11:49:48.004Z,102565.28
2019-02-24T11:51:22.478Z,102560.53
2019-02-24T11:52:57.198Z,102572.55
2019-02-24T11:54:31.592Z,102561.79
2019-02-24T11:56:06.509Z,102572.64
2019-02-24T11:57:41.539Z,102556.34
2019-02-24T11:59:16.345Z,102575.22
2019-02-24T12:00:51.344Z,102577.09
2019-02-24T12:02:34.291Z,102584.24
2019-02-24T12:04:03.456Z,102581.90
2019-02-24T12:05:38.196Z,102589.23
2019-02-24T12:07:12.557Z,102587.16
2019-02-24T12:08:47.303Z,102577.86
2019-02-24T12:10:22.076Z,102562.97
2019-02-24T12:11:56.484Z,102554.33
2019-02-24T12:13:31.128Z,102566.73
2019-02-24T12:15:06.833Z,102562.78
2019-02-24T12:16:41.289Z,102565.14
2019-02-24T12:18:16.079Z,102565.21
2019-02-24T12:19:50.437Z,102579.94
2019-02-24T12:21:24.957Z,102584.14
2019-02-24T12:23:06.429Z,102593.00
2019-02-24T12:24:42.309Z,102588.42
2019-02-24T12:26:17.354Z,102586.75
2019-02-24T12:27:52.492Z,102591.05
2019-02-24T12:29:27.608Z,102588.52
2019-02-24T12:31:02.922Z,102574.74
2019-02-24T12:32:37.799Z,102565.08
2019-02-24T12:34:12.937Z,102574.77
2019-02-24T12:35:47.993Z,102552.92
2019-02-24T12:37:22.793Z,102553.88
2019-02-24T12:38:57.820Z,102554.86
2019-02-24T12:40:33.175Z,102561.12
2019-02-24T12:42:08.420Z,102554.44
2019-02-24T12:43:43.442Z,102554.69
2019-02-24T12:45:18.305Z,102552.23
2019-02-24T12:46:53.459Z,102551.66
2019-02-24T12:48:28.859Z,102546.22
2019-02-24T12:50:04.461Z,102545.28
2019-02-24T12:51:39.300Z,102547.63
2019-02-24T12:53:14.560Z,102555.59
2019-02-24T12:54:49.339Z,102555.80
2019-02-24T12:56:24.417Z,102550.20
2019-02-24T12:57:59.374Z,102553.35
2019-02-24T12:59:34.551Z,102551.95
2019-02-24T13:01:09.732Z,102550.73
2019-02-24T13:02:45.277Z,102555.93
2019-02-24T13:04:20.243Z,102559.80
2019-02-24T13:05:55.743Z,102563.50
2019-02-24T13:07:30.787Z,102557.34
2019-02-24T13:09:09.742Z,102561.52
2019-02-24T13:10:45.415Z,102556.86
2019-02-24T13:12:20.402Z,102559.00
2019-02-24T13:13:55.997Z,102557.94
2019-02-24T13:15:31.913Z,102556.65
2019-02-24T13:17:07.580Z,102560.89
2019-02-24T13:18:42.657Z,102556.83
2019-02-24T13:20:18.326Z,102558.69
2019-02-24T13:21:53.133Z,102544.81
2019-02-24T13:23:28.229Z,102539.43
2019-02-24T13:25:03.018Z,102537.63
2019-02-24T13:26:38.128Z,102535.05
2019-02-24T13:28:13.163Z,102531.92
2019-02-24T13:29:48.424Z,102521.61
2019-02-24T13:31:23.239Z,102518.37
2019-02-24T13:32:58.023Z,102521.87
2019-02-24T13:34:33.291Z,102519.20
2019-02-24T13:36:08.380Z,102512.06
2019-02-24T13:37:43.491Z,102518.46
2019-02-24T13:39:18.511Z,102515.32
2019-02-24T13:40:53.282Z,102513.39
2019-02-24T13:42:28.330Z,102514.19
2019-02-24T13:44:03.344Z,102519.24
2019-02-24T13:45:38.116Z,102522.50
2019-02-24T13:47:12.899Z,102518.97
2019-02-24T13:48:47.682Z,102521.23
2019-02-24T13:50:22.741Z,102515.09
2019-02-24T13:51:57.517Z,102515.58
2019-02-24T13:53:32.304Z,102509.97
2019-02-24T13:55:08.836Z,102517.56
2019-02-24T13:56:45.360Z,102513.35
2019-02-24T13:58:20.355Z,102510.92
2019-02-24T13:59:55.530Z,102505.50
2019-02-24T14:01:30.313Z,102505.31
2019-02-24T14:03:05.237Z,102504.25
2019-02-24T14:04:40.017Z,102502.00
2019-02-24T14:06:15.089Z,102497.62
2019-02-24T14:07:50.100Z,102504.16
2019-02-24T14:09:24.894Z,102502.14
2019-02-24T14:11:00.501Z,102503.34
2019-02-24T14:12:35.671Z,102503.84
2019-02-24T14:14:10.452Z,102499.64
2019-02-24T14:15:45.232Z,102504.20
2019-02-24T14:17:20.028Z,102500.33
2019-02-24T14:18:54.807Z,102504.52
2019-02-24T14:20:29.854Z,102508.34
2019-02-24T14:22:04.664Z,102503.72
2019-02-24T14:23:39.697Z,102500.36
2019-02-24T14:25:14.590Z,102498.61
2019-02-24T14:26:49.375Z,102494.23
2019-02-24T14:28:24.697Z,102488.22
2019-02-24T14:29:59.476Z,102491.14
2019-02-24T14:31:34.251Z,102490.48
2019-02-24T14:33:09.044Z,102490.84
2019-02-24T14:34:43.820Z,102484.94
2019-02-24T14:36:18.615Z,102493.30
2019-02-24T14:37:53.421Z,102506.97
2019-02-24T14:39:30.974Z,102511.25
2019-02-24T14:41:05.741Z,102512.13
2019-02-24T14:42:41.261Z,102518.83
2019-02-24T14:44:16.299Z,102524.41
2019-02-24T14:45:51.319Z,102526.11
2019-02-24T14:47:26.094Z,102534.03
2019-02-24T14:49:00.891Z,102535.06
2019-02-24T14:50:35.672Z,102529.25
2019-02-24T14:52:10.472Z,102533.92
2019-02-24T14:53:45.571Z,102540.97
2019-02-24T14:55:20.584Z,102539.23
2019-02-24T14:56:55.391Z,102544.75
2019-02-24T14:58:30.169Z,102544.09
2019-02-24T15:00:06.531Z,102547.59
2019-02-24T15:01:40.917Z,102550.07
2019-02-24T15:03:15.628Z,102545.70
2019-02-24T15:04:50.222Z,102549.53
2019-02-24T15:06:24.658Z,102544.50
2019-02-24T15:07:59.356Z,102554.79
2019-02-24T15:09:33.978Z,102547.88
2019-02-24T15:11:08.670Z,102552.70
2019-02-24T15:12:43.041Z,102553.03
2019-02-24T15:14:17.653Z,102550.72
2019-02-24T15:15:52.250Z,102549.06
2019-02-24T15:17:26.978Z,102549.39
2019-02-24T15:19:01.601Z,102553.58
2019-02-24T15:20:36.374Z,102560.70
2019-02-24T15:22:10.729Z,102551.80
2019-02-24T15:23:45.656Z,102547.50
2019-02-24T15:25:20.089Z,102560.67
2019-02-24T15:26:54.721Z,102558.42
2019-02-24T15:28:29.610Z,102564.46
2019-02-24T15:30:04.439Z,102562.16
2019-02-24T15:31:39.229Z,102557.23
2019-02-24T15:33:13.678Z,102557.22
2019-02-24T15:34:48.305Z,102544.48
2019-02-24T15:36:22.979Z,102548.22
2019-02-24T15:37:57.499Z,102541.41
2019-02-24T15:39:31.857Z,102540.22
2019-02-24T15:41:06.290Z,102532.36
2019-02-24T15:42:40.953Z,102530.03
2019-02-24T15:44:15.372Z,102535.61
2019-02-24T15:45:50.203Z,102528.52
2019-02-24T15:47:25.326Z,102518.37
2019-02-24T15:48:59.800Z,102518.64
2019-02-24T15:50:34.157Z,102516.59
2019-02-24T15:52:10.088Z,102529.20
2019-02-24T15:53:44.921Z,102532.45
2019-02-24T15:55:19.453Z,102529.02
2019-02-24T15:56:54.235Z,102528.45
2019-02-24T15:58:29.455Z,102535.08
2019-02-24T16:00:06.840Z,102546.02
2019-02-24T16:01:41.692Z,102549.06
2019-02-24T16:03:16.768Z,102546.66
2019-02-24T16:04:51.217Z,102544.25
2019-02-24T16:06:26.169Z,102543.76
2019-02-24T16:08:00.598Z,102542.84
2019-02-24T16:09:34.965Z,102538.25
2019-02-24T16:11:09.621Z,102543.25
2019-02-24T16:12:44.238Z,102541.58
2019-02-24T16:14:18.645Z,102547.44
2019-02-24T16:15:53.066Z,102546.86
2019-02-24T16:17:27.802Z,102545.55
2019-02-24T16:19:02.705Z,102546.89
2019-02-24T16:20:37.502Z,102550.19
2019-02-24T16:22:12.334Z,102550.48
2019-02-24T16:23:47.061Z,102545.02
2019-02-24T16:25:21.657Z,102546.78
2019-02-24T16:26:56.689Z,102541.93
2019-02-24T16:28:31.057Z,102536.20
2019-02-24T16:30:05.893Z,102536.95
2019-02-24T16:31:40.754Z,102541.67
2019-02-24T16:33:15.152Z,102542.92
2019-02-24T16:34:50.055Z,102551.72
2019-02-24T16:36:25.133Z,102546.30
2019-02-24T16:37:59.966Z,102549.40
2019-02-24T16:39:35.512Z,102542.74
2019-02-24T16:41:10.632Z,102558.67
2019-02-24T16:42:45.673Z,102556.02
2019-02-24T16:44:20.496Z,102555.87
2019-02-24T16:45:55.246Z,102557.70
2019-02-24T16:47:29.607Z,102564.03
2019-02-24T16:49:04.242Z,102557.31
2019-02-24T16:50:38.731Z,102560.53
2019-02-24T16:52:13.763Z,102568.91
2019-02-24T16:53:48.213Z,102567.13
2019-02-24T16:55:27.538Z,102569.08
2019-02-24T16:57:05.155Z,102555.14
2019-02-24T16:58:38.995Z,102562.28
2019-02-24T17:00:16.251Z,102560.04
2019-02-24T17:01:50.963Z,102557.13
2019-02-24T17:03:25.546Z,102560.45
2019-02-24T17:05:00.317Z,102561.03
2019-02-24T17:06:35.358Z,102562.45
2019-02-24T17:08:09.830Z,102561.77
2019-02-24T17:09:44.331Z,102558.98
2019-02-24T17:11:19.044Z,102565.87
2019-02-24T17:12:53.554Z,102568.13
2019-02-24T17:14:28.479Z,102566.12
2019-02-24T17:16:03.421Z,102575.80
2019-02-24T17:17:41.699Z,102575.73
2019-02-24T17:19:16.073Z,102573.41
2019-02-24T17:20:50.705Z,102577.19
2019-02-24T17:22:25.053Z,102571.61
2019-02-24T17:23:59.957Z,102572.94
2019-02-24T17:25:34.666Z,102567.83
2019-02-24T17:27:09.017Z,102571.27
2019-02-24T17:28:43.712Z,102574.36
2019-02-24T17:30:18.134Z,102575.68
2019-02-24T17:31:52.479Z,102572.60
2019-02-24T17:33:30.078Z,102577.30
2019-02-24T17:35:03.194Z,102576.84
2019-02-24T17:36:37.644Z,102582.13
2019-02-24T17:38:11.992Z,102582.53
2019-02-24T17:39:46.341Z,102586.69
2019-02-24T17:41:21.123Z,102585.58
2019-02-24T17:42:56.261Z,102595.22
2019-02-24T17:44:30.945Z,102594.25
2019-02-24T17:46:05.333Z,102596.17
2019-02-24T17:47:39.813Z,102601.80
2019-02-24T17:49:14.165Z,102603.03
2019-02-24T17:50:48.520Z,102591.26
2019-02-24T17:52:23.136Z,102597.23
2019-02-24T17:53:57.505Z,102605.34
2019-02-24T17:55:31.946Z,102605.11
2019-02-24T17:57:06.558Z,102613.98
2019-02-24T17:58:41.296Z,102614.11
2019-02-24T18:00:19.763Z,102612.80
2019-02-24T18:01:54.205Z,102615.83